Home   Weather   Phiskardo   Past weeks
Flag for Greece

Past Weather in Phiskardo, Greece — Yesterday and Last 2 Weeks

Currently: 64 °F. Sunny. (Weather station: Aktion Airport, Greece). See more current weather

Past Weather in Phiskardo — Graph

°F

Phiskardo Temperature Yesterday

Maximum temperature yesterday: 79 °F (at 12:50 pm)
Minimum temperature yesterday: 57 °F (at 2:20 am)
Average temperature yesterday: 70 °F

High & Low Weather Summary for the Past Weeks

 TemperatureHumidityPressure
High88 °F (Sep 13, 12:50 pm)100% (Sep 17, 2:20 am)30.15 "Hg (Sep 17, 2:20 am)
Low57 °F (Sep 24, 2:20 am)28% (Sep 23, 2:50 pm)29.86 "Hg (Sep 12, 4:50 am)
Average74 °F74%29.99 "Hg
* Reported Sep 10 7:20 am — Sep 25 7:50 am, Phiskardo. Weather by CustomWeather, © 2021

Note: Actual official high and low records may vary slightly from our data, if they occured in-between our weather recording intervals... More about our weather records

Phiskardo Weather History for the Previous 24 Hours

Scroll right to see more
 ConditionsComfort  
Time TempWeatherWind HumidityBarometerVisibility
7:50 am
Sat, Sep 25
63 °FSunny.8 mph83%30.12 "Hg10 mi
7:20 am61 °FClear.6 mph83%30.09 "Hg10 mi
6:50 am59 °FClear.6 mph88%30.09 "Hg10 mi
6:20 am61 °FClear.5 mph88%30.09 "Hg10 mi
5:50 am61 °FClear.5 mph88%30.09 "Hg10 mi
5:20 am59 °FCool.2 mph94%30.09 "HgN/A
4:50 am59 °FCool.1 mph88%30.09 "HgN/A
4:20 am59 °FCool.1 mph88%30.09 "HgN/A
3:50 am61 °FCool.1 mph88%30.09 "HgN/A
3:20 am61 °FCool.No wind83%30.09 "HgN/A
2:50 am61 °FClear.5 mph88%30.09 "Hg10 mi
11:50 pm
Fri, Sep 24
68 °FClear.5 mph73%30.09 "Hg10 mi
10:50 pm72 °FClear.8 mph61%30.09 "Hg10 mi
9:50 pm70 °FClear.8 mph64%30.09 "Hg10 mi
8:50 pm70 °FClear.8 mph64%30.09 "Hg10 mi
8:20 pm70 °FClear.7 mph60%30.07 "Hg10 mi
7:50 pm72 °FClear.6 mph61%30.07 "Hg10 mi
7:20 pm73 °FSunny.7 mph57%30.07 "Hg10 mi
6:50 pm73 °FSunny.8 mph57%30.07 "Hg10 mi
6:20 pm75 °FSunny.10 mph50%30.07 "Hg10 mi
5:50 pm75 °FSunny.12 mph50%30.07 "Hg10 mi
5:20 pm77 °FSunny.10 mph51%30.07 "Hg10 mi
4:50 pm77 °FSunny.12 mph47%30.07 "Hg10 mi
4:20 pm79 °FSunny.13 mph48%30.07 "Hg10 mi
3:50 pm79 °FSunny.14 mph48%30.07 "Hg10 mi
3:20 pm77 °FSunny.12 mph47%30.09 "Hg10 mi
2:50 pm77 °FSunny.12 mph47%30.09 "Hg10 mi
2:20 pm77 °FSunny.10 mph44%30.09 "Hg10 mi
1:50 pm79 °FSunny.8 mph39%30.09 "Hg10 mi
1:20 pm79 °FSunny.8 mph32%30.09 "Hg10 mi
12:50 pm79 °FSunny.3 mph32%30.12 "Hg10 mi
12:20 pm77 °FSunny.No wind34%30.12 "Hg10 mi
11:50 am75 °FSunny.5 mph41%30.12 "Hg10 mi
11:20 am73 °FSunny.7 mph44%30.12 "Hg10 mi
10:50 am72 °FSunny.7 mph47%30.12 "Hg10 mi
10:20 am70 °FSunny.7 mph53%30.09 "Hg10 mi
9:50 am68 °FSunny.8 mph56%30.09 "Hg10 mi
9:20 am68 °FSunny.9 mph53%30.09 "Hg10 mi
Weather by CustomWeather, © 2021

See weather overview